createdAt,value
2019-04-27T00:01:19.245Z,9.90
2019-04-27T00:03:47.875Z,9.30
2019-04-27T00:06:16.509Z,10.07
2019-04-27T00:08:45.141Z,9.23
2019-04-27T00:11:13.935Z,10.77
2019-04-27T00:13:44.077Z,9.77
2019-04-27T00:16:13.514Z,10.07
2019-04-27T00:18:45.070Z,9.53
2019-04-27T00:21:13.458Z,11.17
2019-04-27T00:23:44.539Z,10.03
2019-04-27T00:26:12.990Z,11.07
2019-04-27T00:28:40.459Z,10.27
2019-04-27T00:31:07.914Z,10.43
2019-04-27T00:33:34.638Z,10.80
2019-04-27T00:36:03.312Z,11.07
2019-04-27T00:38:33.445Z,9.47
2019-04-27T00:41:02.940Z,9.33
2019-04-27T00:43:30.092Z,9.90
2019-04-27T00:45:56.751Z,9.27
2019-04-27T00:48:23.526Z,10.80
2019-04-27T00:50:52.810Z,10.20
2019-04-27T00:53:20.040Z,10.00
2019-04-27T00:55:48.609Z,10.80
2019-04-27T00:58:17.087Z,10.03
2019-04-27T01:00:44.079Z,9.63
2019-04-27T01:03:13.959Z,11.37
2019-04-27T01:05:40.769Z,11.03
2019-04-27T01:08:07.651Z,10.57
2019-04-27T01:10:34.315Z,9.53
2019-04-27T01:13:01.132Z,11.77
2019-04-27T01:15:28.323Z,9.63
2019-04-27T01:18:07.058Z,10.00
2019-04-27T01:20:23.649Z,9.97
2019-04-27T01:22:50.490Z,10.47
2019-04-27T01:25:18.879Z,10.13
2019-04-27T01:27:49.364Z,10.10
2019-04-27T01:30:18.890Z,11.23
2019-04-27T01:32:45.918Z,10.50
2019-04-27T01:35:12.587Z,10.60
2019-04-27T01:37:39.191Z,12.33
2019-04-27T01:40:07.099Z,10.93
2019-04-27T01:42:33.755Z,10.97
2019-04-27T01:45:00.476Z,10.37
2019-04-27T01:47:28.841Z,11.23
2019-04-27T01:49:55.941Z,11.67
2019-04-27T01:52:22.528Z,12.40
2019-04-27T01:54:49.615Z,12.43
2019-04-27T01:57:16.395Z,11.20
2019-04-27T01:59:43.111Z,10.63
2019-04-27T02:02:11.804Z,11.83
2019-04-27T02:04:40.727Z,10.60
2019-04-27T02:07:09.596Z,11.67
2019-04-27T02:09:36.299Z,11.63
2019-04-27T02:12:03.653Z,11.50
2019-04-27T02:14:30.436Z,11.67
2019-04-27T02:16:57.143Z,12.27
2019-04-27T02:19:23.966Z,10.70
2019-04-27T02:21:51.557Z,11.17
2019-04-27T02:24:18.744Z,10.93
2019-04-27T02:26:45.889Z,11.33
2019-04-27T02:29:14.461Z,11.33
2019-04-27T02:31:43.102Z,11.83
2019-04-27T02:34:11.752Z,12.23
2019-04-27T02:36:39.177Z,11.17
2019-04-27T02:39:09.312Z,12.47
2019-04-27T02:41:36.188Z,11.57
2019-04-27T02:44:06.552Z,12.33
2019-04-27T02:46:33.417Z,11.80
2019-04-27T02:49:06.078Z,12.20
2019-04-27T02:51:30.631Z,11.63
2019-04-27T02:54:00.201Z,11.23
2019-04-27T02:56:27.513Z,11.03
2019-04-27T02:58:54.488Z,11.83
2019-04-27T03:01:23.770Z,11.03
2019-04-27T03:03:50.632Z,11.27
2019-04-27T03:06:19.680Z,10.17
2019-04-27T03:08:49.509Z,11.30
2019-04-27T03:11:14.557Z,10.97
2019-04-27T03:13:43.143Z,11.60
2019-04-27T03:16:13.445Z,10.13
2019-04-27T03:18:42.215Z,10.60
2019-04-27T03:21:13.102Z,10.43
2019-04-27T03:23:41.164Z,10.50
2019-04-27T03:26:10.791Z,10.53
2019-04-27T03:28:40.152Z,10.27
2019-04-27T03:31:06.686Z,10.70
2019-04-27T03:33:34.101Z,10.77
2019-04-27T03:36:02.527Z,10.20
2019-04-27T03:38:30.213Z,11.07
2019-04-27T03:40:57.387Z,10.40
2019-04-27T03:43:24.371Z,10.60
2019-04-27T03:45:52.295Z,9.93
2019-04-27T03:48:20.366Z,11.00
2019-04-27T03:50:50.609Z,10.97
2019-04-27T03:53:20.517Z,10.87
2019-04-27T03:55:50.616Z,9.80
2019-04-27T03:58:21.626Z,10.13
2019-04-27T04:00:51.970Z,10.50
2019-04-27T04:03:20.255Z,10.03
2019-04-27T04:05:47.066Z,10.23
2019-04-27T04:08:14.038Z,10.07
2019-04-27T04:10:42.666Z,10.20
2019-04-27T04:13:11.179Z,9.30
2019-04-27T04:15:40.040Z,11.70
2019-04-27T04:18:06.932Z,9.90
2019-04-27T04:20:34.629Z,9.63
2019-04-27T04:23:03.391Z,9.73
2019-04-27T04:25:33.117Z,10.37
2019-04-27T04:28:00.597Z,9.20
2019-04-27T04:30:30.019Z,9.90
2019-04-27T04:32:56.217Z,8.80
2019-04-27T04:35:23.862Z,9.77
2019-04-27T04:37:52.832Z,10.60
2019-04-27T04:40:23.238Z,10.03
2019-04-27T04:42:52.030Z,8.90
2019-04-27T04:45:20.646Z,9.77
2019-04-27T04:47:49.761Z,9.83
2019-04-27T04:50:16.746Z,11.33
2019-04-27T04:52:43.473Z,9.87
2019-04-27T04:55:10.476Z,9.33
2019-04-27T04:57:37.274Z,9.90
2019-04-27T05:00:05.556Z,9.47
2019-04-27T05:02:32.274Z,9.43
2019-04-27T05:04:59.122Z,9.87
2019-04-27T05:07:27.479Z,9.50
2019-04-27T05:09:54.896Z,9.13
2019-04-27T05:12:22.657Z,8.60
2019-04-27T05:14:51.469Z,8.23
2019-04-27T05:17:19.639Z,9.30
2019-04-27T05:19:49.094Z,8.67
2019-04-27T05:22:16.251Z,8.10
2019-04-27T05:24:43.655Z,8.53
2019-04-27T05:27:10.538Z,9.03
2019-04-27T05:29:38.828Z,8.20
2019-04-27T05:32:05.657Z,8.70
2019-04-27T05:34:32.928Z,8.33
2019-04-27T05:37:01.128Z,8.27
2019-04-27T05:39:29.780Z,8.67
2019-04-27T05:41:56.467Z,7.53
2019-04-27T05:44:24.994Z,6.97
2019-04-27T05:46:53.700Z,7.87
2019-04-27T05:49:22.303Z,7.60
2019-04-27T05:51:50.144Z,8.13
2019-04-27T05:54:19.232Z,6.83
2019-04-27T05:56:46.416Z,6.67
2019-04-27T05:59:14.798Z,7.37
2019-04-27T06:01:41.730Z,7.20
2019-04-27T06:04:09.067Z,7.73
2019-04-27T06:06:36.333Z,5.90
2019-04-27T06:09:05.968Z,6.37
2019-04-27T06:11:32.627Z,6.07
2019-04-27T06:13:59.442Z,5.77
2019-04-27T06:16:26.154Z,6.77
2019-04-27T06:18:53.095Z,6.33
2019-04-27T06:21:19.773Z,6.17
2019-04-27T06:23:48.715Z,6.50
2019-04-27T06:26:15.487Z,6.67
2019-04-27T06:28:42.058Z,6.13
2019-04-27T06:31:08.890Z,7.43
2019-04-27T06:33:35.506Z,7.43
2019-04-27T06:36:02.399Z,7.70
2019-04-27T06:38:30.192Z,7.43
2019-04-27T06:40:56.773Z,7.63
2019-04-27T06:43:23.372Z,7.87
2019-04-27T06:45:49.964Z,7.27
2019-04-27T06:48:16.512Z,6.90
2019-04-27T06:50:43.124Z,7.53
2019-04-27T06:53:09.663Z,7.50
2019-04-27T06:55:36.218Z,6.97
2019-04-27T06:58:03.728Z,8.37
2019-04-27T07:00:30.415Z,8.80
2019-04-27T07:02:56.968Z,9.13
2019-04-27T07:05:24.053Z,11.40
2019-04-27T07:07:50.848Z,10.37
2019-04-27T07:10:18.610Z,10.30
2019-04-27T07:12:45.671Z,9.57
2019-04-27T07:15:15.395Z,10.30
2019-04-27T07:17:41.039Z,9.53
2019-04-27T07:20:09.194Z,10.10
2019-04-27T07:22:35.895Z,9.03
2019-04-27T07:25:05.223Z,9.07
2019-04-27T07:27:32.420Z,8.93
2019-04-27T07:30:01.554Z,9.40
2019-04-27T07:32:29.347Z,9.20
2019-04-27T07:34:55.918Z,8.63
2019-04-27T07:37:22.578Z,8.57
2019-04-27T07:39:49.399Z,8.93
2019-04-27T07:42:16.981Z,9.13
2019-04-27T07:44:47.065Z,10.07
2019-04-27T07:47:16.040Z,9.87
2019-04-27T07:49:45.008Z,11.03
2019-04-27T07:52:12.862Z,11.77
2019-04-27T07:54:41.001Z,12.00
2019-04-27T07:57:09.738Z,14.53
2019-04-27T07:59:36.639Z,15.27
2019-04-27T08:02:04.586Z,16.30
2019-04-27T08:04:31.363Z,16.53
2019-04-27T08:06:59.562Z,18.93
2019-04-27T08:09:26.508Z,15.90
2019-04-27T08:11:53.371Z,17.33
2019-04-27T08:14:19.941Z,19.27
2019-04-27T08:16:48.486Z,17.97
2019-04-27T08:19:15.403Z,17.67
2019-04-27T08:21:44.562Z,18.13
2019-04-27T08:24:11.755Z,16.33
2019-04-27T08:26:40.690Z,17.87
2019-04-27T08:29:09.313Z,17.10
2019-04-27T08:31:38.643Z,19.50
2019-04-27T08:34:08.572Z,16.93
2019-04-27T08:36:35.374Z,19.33
2019-04-27T08:39:04.968Z,17.07
2019-04-27T08:41:32.131Z,17.93
2019-04-27T08:43:58.829Z,17.40
2019-04-27T08:46:25.403Z,18.77
2019-04-27T08:48:52.163Z,17.27
2019-04-27T08:51:19.657Z,17.37
2019-04-27T08:53:46.606Z,16.30
2019-04-27T08:56:14.622Z,17.13
2019-04-27T08:58:41.253Z,17.33
2019-04-27T09:01:10.162Z,18.10
2019-04-27T09:03:36.468Z,16.47
2019-04-27T09:06:05.200Z,16.77
2019-04-27T09:08:34.835Z,18.93
2019-04-27T09:11:03.526Z,16.87
2019-04-27T09:13:32.187Z,17.30
2019-04-27T09:16:01.022Z,17.23
2019-04-27T09:18:32.369Z,16.57
2019-04-27T09:21:00.183Z,16.03
2019-04-27T09:23:28.513Z,16.40
2019-04-27T09:25:59.325Z,16.33
2019-04-27T09:28:26.025Z,16.30
2019-04-27T09:30:52.868Z,15.30
2019-04-27T09:33:22.161Z,15.97
2019-04-27T09:35:48.226Z,16.10
2019-04-27T09:38:14.860Z,15.50
2019-04-27T09:40:41.403Z,15.83
2019-04-27T09:43:07.977Z,15.00
2019-04-27T09:45:34.893Z,15.43
2019-04-27T09:48:01.702Z,15.80
2019-04-27T09:50:28.609Z,15.87
2019-04-27T09:52:55.803Z,16.00
2019-04-27T09:55:22.979Z,15.67
2019-04-27T09:57:49.651Z,16.33
2019-04-27T10:00:18.008Z,17.37
2019-04-27T10:02:46.422Z,14.77
2019-04-27T10:05:15.373Z,15.53
2019-04-27T10:07:43.246Z,14.53
2019-04-27T10:10:10.404Z,14.37
2019-04-27T10:12:37.288Z,15.03
2019-04-27T10:15:08.052Z,13.00
2019-04-27T10:17:34.683Z,14.50
2019-04-27T10:20:01.585Z,14.77
2019-04-27T10:22:40.341Z,13.93
2019-04-27T10:24:56.936Z,15.03
2019-04-27T10:27:23.564Z,13.93
2019-04-27T10:29:50.708Z,13.57
2019-04-27T10:32:17.661Z,14.43
2019-04-27T10:34:44.280Z,14.63
2019-04-27T10:37:11.507Z,14.40
2019-04-27T10:39:38.315Z,13.73
2019-04-27T10:42:06.733Z,13.03
2019-04-27T10:44:35.566Z,13.13
2019-04-27T10:47:02.749Z,13.27
2019-04-27T10:49:29.633Z,11.93
2019-04-27T10:51:56.470Z,13.40
2019-04-27T10:54:23.247Z,13.37
2019-04-27T10:56:50.381Z,12.77
2019-04-27T10:59:17.434Z,13.37
2019-04-27T11:01:45.860Z,12.87
2019-04-27T11:04:15.886Z,12.57
2019-04-27T11:06:45.109Z,12.80
2019-04-27T11:09:12.070Z,13.60
2019-04-27T11:11:39.549Z,13.10
2019-04-27T11:14:06.947Z,13.40
2019-04-27T11:16:35.665Z,11.73
2019-04-27T11:19:03.179Z,12.97
2019-04-27T11:21:30.200Z,13.30
2019-04-27T11:23:57.024Z,12.27
2019-04-27T11:26:23.928Z,12.20
2019-04-27T11:28:52.322Z,12.30
2019-04-27T11:31:20.202Z,11.77
2019-04-27T11:33:46.820Z,11.43
2019-04-27T11:36:17.051Z,12.00
2019-04-27T11:38:44.451Z,12.00
2019-04-27T11:41:11.080Z,10.53
2019-04-27T11:43:37.978Z,12.10
2019-04-27T11:46:06.169Z,11.87
2019-04-27T11:48:33.430Z,12.27
2019-04-27T11:51:00.335Z,13.20
2019-04-27T11:53:26.875Z,12.40
2019-04-27T11:55:53.899Z,11.90
2019-04-27T11:58:20.492Z,11.83
2019-04-27T12:00:47.185Z,11.90
2019-04-27T12:03:16.572Z,11.97
2019-04-27T12:05:43.499Z,10.90
2019-04-27T12:08:10.116Z,12.23
2019-04-27T12:10:36.728Z,11.17
2019-04-27T12:13:05.433Z,11.17
2019-04-27T12:15:32.366Z,12.47
2019-04-27T12:17:59.122Z,12.47
2019-04-27T12:20:26.079Z,12.43
2019-04-27T12:22:53.113Z,11.47
2019-04-27T12:25:20.116Z,12.93
2019-04-27T12:27:48.836Z,12.87
2019-04-27T12:30:18.255Z,11.73
2019-04-27T12:32:45.692Z,11.23
2019-04-27T12:35:13.663Z,11.60
2019-04-27T12:37:40.254Z,10.73
2019-04-27T12:40:07.341Z,10.50
2019-04-27T12:42:36.234Z,11.17
2019-04-27T12:45:05.708Z,10.73
2019-04-27T12:47:32.666Z,11.13
2019-04-27T12:49:59.400Z,11.10
2019-04-27T12:52:26.268Z,10.97
2019-04-27T12:54:55.009Z,11.07
2019-04-27T12:57:26.885Z,11.70
2019-04-27T12:59:56.614Z,11.63
2019-04-27T13:02:28.040Z,11.77
2019-04-27T13:04:56.652Z,12.00
2019-04-27T13:07:23.495Z,12.37
2019-04-27T13:09:50.134Z,11.47
2019-04-27T13:12:18.150Z,11.93
2019-04-27T13:14:45.722Z,11.33
2019-04-27T13:17:12.686Z,11.30
2019-04-27T13:19:39.345Z,10.87
2019-04-27T13:22:09.017Z,12.33
2019-04-27T13:24:36.790Z,11.30
2019-04-27T13:27:06.516Z,12.13
2019-04-27T13:29:35.739Z,10.50
2019-04-27T13:32:03.240Z,11.40
2019-04-27T13:34:29.918Z,11.53
2019-04-27T13:36:58.637Z,11.53
2019-04-27T13:39:25.797Z,12.07
2019-04-27T13:41:52.759Z,11.70
2019-04-27T13:44:19.511Z,12.17
2019-04-27T13:46:48.213Z,12.70
2019-04-27T13:49:18.150Z,14.10
2019-04-27T13:51:46.623Z,13.83
2019-04-27T13:54:18.878Z,11.90
2019-04-27T13:56:43.812Z,12.90
2019-04-27T13:59:12.775Z,13.60
2019-04-27T14:01:40.588Z,12.50
2019-04-27T14:04:07.238Z,12.77
2019-04-27T14:06:34.119Z,12.10
2019-04-27T14:09:03.887Z,13.00
2019-04-27T14:11:32.558Z,11.70
2019-04-27T14:13:59.180Z,11.80
2019-04-27T14:16:25.774Z,11.93
2019-04-27T14:18:52.651Z,12.60
2019-04-27T14:21:19.310Z,12.20
2019-04-27T14:23:45.925Z,11.90
2019-04-27T14:26:12.943Z,14.83
2019-04-27T14:28:39.796Z,13.80
2019-04-27T14:31:06.551Z,13.03
2019-04-27T14:33:33.319Z,11.63
2019-04-27T14:36:00.054Z,12.73
2019-04-27T14:38:26.736Z,13.30
2019-04-27T14:40:53.646Z,13.37
2019-04-27T14:43:20.378Z,13.43
2019-04-27T14:45:48.616Z,12.87
2019-04-27T14:48:15.777Z,14.17
2019-04-27T14:50:42.665Z,17.37
2019-04-27T14:53:09.236Z,15.93
2019-04-27T14:55:35.951Z,16.87
2019-04-27T14:58:02.857Z,15.73
2019-04-27T15:00:30.680Z,18.10
2019-04-27T15:02:59.147Z,17.03
2019-04-27T15:05:26.141Z,15.23
2019-04-27T15:07:54.583Z,14.97
2019-04-27T15:10:27.011Z,15.60
2019-04-27T15:12:55.452Z,13.73
2019-04-27T15:15:22.031Z,13.57
2019-04-27T15:17:49.429Z,14.53
2019-04-27T15:20:18.553Z,14.20
2019-04-27T15:22:50.790Z,13.83
2019-04-27T15:25:15.905Z,14.47
2019-04-27T15:27:45.170Z,14.20
2019-04-27T15:30:14.529Z,13.20
2019-04-27T15:32:43.210Z,16.07
2019-04-27T15:35:11.939Z,14.07
2019-04-27T15:37:40.642Z,13.50
2019-04-27T15:40:12.679Z,11.17
2019-04-27T15:42:49.064Z,12.40
2019-04-27T15:45:12.060Z,11.00
2019-04-27T15:47:42.546Z,10.53
2019-04-27T15:50:08.727Z,10.30
2019-04-27T15:52:35.434Z,12.50
2019-04-27T15:55:11.015Z,12.57
2019-04-27T15:57:33.075Z,12.43
2019-04-27T15:59:59.847Z,10.67
2019-04-27T16:02:26.535Z,12.57
2019-04-27T16:04:53.619Z,12.47
2019-04-27T16:07:25.259Z,12.87
2019-04-27T16:09:49.423Z,12.37
2019-04-27T16:12:18.024Z,12.30
2019-04-27T16:14:44.828Z,11.67
2019-04-27T16:17:11.695Z,12.87
2019-04-27T16:19:42.627Z,14.33
2019-04-27T16:22:08.029Z,12.90
2019-04-27T16:24:34.993Z,14.37
2019-04-27T16:27:01.844Z,12.70
2019-04-27T16:29:31.575Z,12.47
2019-04-27T16:31:58.349Z,12.40
2019-04-27T16:34:25.475Z,12.47
2019-04-27T16:36:52.568Z,12.00
2019-04-27T16:39:20.411Z,13.20
2019-04-27T16:41:50.027Z,12.63
2019-04-27T16:44:15.941Z,13.97
2019-04-27T16:46:43.187Z,13.07
2019-04-27T16:49:14.025Z,13.03
2019-04-27T16:51:40.278Z,13.00
2019-04-27T16:54:13.065Z,12.40
2019-04-27T16:56:37.923Z,12.23
2019-04-27T16:59:25.895Z,11.60
2019-04-27T17:01:33.822Z,11.93
2019-04-27T17:04:00.655Z,11.93
2019-04-27T17:06:29.532Z,11.13
2019-04-27T17:08:57.476Z,12.13
2019-04-27T17:11:26.170Z,12.83
2019-04-27T17:13:56.223Z,12.27
2019-04-27T17:16:28.753Z,13.93
2019-04-27T17:19:04.614Z,15.00
2019-04-27T17:21:28.843Z,13.80
2019-04-27T17:23:58.732Z,13.50
2019-04-27T17:26:24.394Z,11.17
2019-04-27T17:28:53.192Z,14.37
2019-04-27T17:31:21.961Z,13.60
2019-04-27T17:33:51.768Z,14.70
2019-04-27T17:36:19.863Z,14.17
2019-04-27T17:38:50.857Z,15.37
2019-04-27T17:41:15.709Z,13.93
2019-04-27T17:43:42.812Z,14.33
2019-04-27T17:46:11.494Z,14.30
2019-04-27T17:48:38.622Z,13.77
2019-04-27T17:51:05.681Z,13.83
2019-04-27T17:53:33.200Z,14.67
2019-04-27T17:56:05.680Z,14.70
2019-04-27T17:58:28.747Z,15.20
2019-04-27T18:00:58.011Z,14.50
2019-04-27T18:03:25.828Z,15.77
2019-04-27T18:05:52.622Z,15.50
2019-04-27T18:08:24.605Z,15.23
2019-04-27T18:10:48.034Z,15.93
2019-04-27T18:13:20.867Z,16.30
2019-04-27T18:15:45.739Z,15.57
2019-04-27T18:18:13.887Z,16.83
2019-04-27T18:20:40.646Z,16.50
2019-04-27T18:23:15.184Z,16.20
2019-04-27T18:25:43.472Z,14.57
2019-04-27T18:28:15.176Z,14.13
2019-04-27T18:30:42.185Z,15.17
2019-04-27T18:33:08.893Z,15.87
2019-04-27T18:35:35.549Z,16.00
2019-04-27T18:38:02.385Z,14.77
2019-04-27T18:40:32.027Z,15.10
2019-04-27T18:42:57.937Z,14.43
2019-04-27T18:45:24.767Z,16.50
2019-04-27T18:47:56.415Z,14.70
2019-04-27T18:50:25.161Z,14.97
2019-04-27T18:52:54.084Z,13.70
2019-04-27T18:55:21.089Z,13.67
2019-04-27T18:57:50.981Z,15.23
2019-04-27T19:00:18.938Z,14.93
2019-04-27T19:02:45.790Z,15.40
2019-04-27T19:05:12.858Z,15.73
2019-04-27T19:07:40.171Z,16.13
2019-04-27T19:10:08.953Z,15.40
2019-04-27T19:12:36.068Z,16.20
2019-04-27T19:15:04.976Z,16.03
2019-04-27T19:17:33.587Z,16.53
2019-04-27T19:20:00.482Z,15.63
2019-04-27T19:22:27.948Z,15.47
2019-04-27T19:24:55.714Z,15.07
2019-04-27T19:27:24.262Z,15.13
2019-04-27T19:29:52.774Z,15.23
2019-04-27T19:32:19.742Z,15.00
2019-04-27T19:34:47.996Z,15.23
2019-04-27T19:37:15.064Z,15.17
2019-04-27T19:39:41.676Z,12.33
2019-04-27T19:42:08.415Z,14.17
2019-04-27T19:44:36.214Z,14.90
2019-04-27T19:47:05.651Z,14.83
2019-04-27T19:49:31.946Z,14.37
2019-04-27T19:51:58.883Z,14.03
2019-04-27T19:54:28.260Z,15.13
2019-04-27T19:56:54.860Z,16.10
2019-04-27T19:59:23.413Z,14.63
2019-04-27T20:01:52.658Z,14.30
2019-04-27T20:04:19.204Z,15.27
2019-04-27T20:06:45.928Z,14.70
2019-04-27T20:09:14.795Z,15.00
2019-04-27T20:11:41.460Z,14.47
2019-04-27T20:14:08.106Z,15.10
2019-04-27T20:16:34.819Z,15.63
2019-04-27T20:19:02.520Z,13.93
2019-04-27T20:21:30.809Z,15.47
2019-04-27T20:23:57.738Z,14.33
2019-04-27T20:26:24.411Z,14.10
2019-04-27T20:28:51.474Z,14.40
2019-04-27T20:31:18.116Z,13.87
2019-04-27T20:33:47.722Z,14.43
2019-04-27T20:36:14.348Z,14.13
2019-04-27T20:38:41.869Z,14.17
2019-04-27T20:41:08.685Z,12.87
2019-04-27T20:43:35.345Z,13.13
2019-04-27T20:46:02.158Z,13.27
2019-04-27T20:48:28.743Z,13.37
2019-04-27T20:50:55.357Z,13.00
2019-04-27T20:53:23.971Z,12.50
2019-04-27T20:55:50.652Z,11.93
2019-04-27T20:58:17.262Z,12.83
2019-04-27T21:00:44.187Z,12.50
2019-04-27T21:03:12.996Z,12.27
2019-04-27T21:05:41.686Z,12.27
2019-04-27T21:08:11.756Z,11.90
2019-04-27T21:10:38.684Z,12.57
2019-04-27T21:13:05.517Z,12.97
2019-04-27T21:15:32.172Z,12.40
2019-04-27T21:17:58.766Z,13.93
2019-04-27T21:20:25.449Z,14.03
2019-04-27T21:22:53.487Z,15.27
2019-04-27T21:25:23.073Z,15.03
2019-04-27T21:27:51.364Z,15.80
2019-04-27T21:30:18.196Z,15.37
2019-04-27T21:32:44.862Z,14.70
2019-04-27T21:35:11.722Z,14.60
2019-04-27T21:37:40.683Z,15.07
2019-04-27T21:40:11.288Z,15.13
2019-04-27T21:42:37.862Z,14.13
2019-04-27T21:45:05.063Z,14.30
2019-04-27T21:47:31.710Z,14.70
2019-04-27T21:49:58.275Z,13.00
2019-04-27T21:52:26.787Z,12.90
2019-04-27T21:54:54.667Z,13.37
2019-04-27T21:57:21.246Z,14.13
2019-04-27T21:59:47.864Z,13.20
2019-04-27T22:02:15.248Z,12.93
2019-04-27T22:04:42.013Z,12.03
2019-04-27T22:07:08.820Z,13.57
2019-04-27T22:09:35.670Z,13.50
2019-04-27T22:12:02.779Z,12.33
2019-04-27T22:14:29.473Z,12.77
2019-04-27T22:16:56.305Z,12.20
2019-04-27T22:19:23.435Z,11.83
2019-04-27T22:21:51.958Z,11.80
2019-04-27T22:24:21.272Z,11.97
2019-04-27T22:26:48.322Z,11.37
2019-04-27T22:29:14.941Z,10.17
2019-04-27T22:31:41.755Z,10.07
2019-04-27T22:34:08.647Z,9.97
2019-04-27T22:36:35.250Z,10.97
2019-04-27T22:39:07.467Z,10.30
2019-04-27T22:41:37.864Z,10.97
2019-04-27T22:44:06.447Z,10.67
2019-04-27T22:46:35.119Z,9.43
2019-04-27T22:49:01.963Z,10.10
2019-04-27T22:51:28.611Z,10.23
2019-04-27T22:53:55.300Z,10.00
2019-04-27T22:56:22.488Z,10.17
2019-04-27T22:58:58.618Z,10.20
2019-04-27T23:01:23.262Z,11.00
2019-04-27T23:03:51.747Z,10.70
2019-04-27T23:06:18.557Z,9.90
2019-04-27T23:08:45.172Z,10.50
2019-04-27T23:11:11.912Z,10.40
2019-04-27T23:13:38.904Z,10.50
2019-04-27T23:16:07.651Z,10.53
2019-04-27T23:18:34.311Z,11.73
2019-04-27T23:21:01.533Z,11.83
2019-04-27T23:23:30.896Z,12.87
2019-04-27T23:25:57.521Z,12.90
2019-04-27T23:28:24.227Z,14.37
2019-04-27T23:30:52.811Z,13.77
2019-04-27T23:33:21.083Z,13.83
2019-04-27T23:35:47.924Z,13.40
2019-04-27T23:38:17.775Z,12.60
2019-04-27T23:40:43.194Z,12.23
2019-04-27T23:43:11.473Z,13.20
2019-04-27T23:45:38.664Z,12.87
2019-04-27T23:48:05.397Z,12.30
2019-04-27T23:50:34.040Z,11.93
2019-04-27T23:53:02.646Z,10.83
2019-04-27T23:55:31.144Z,11.70
2019-04-27T23:57:57.766Z,11.20
